Time;durP1;ratioP1;P1;durP2;ratioP2;P2;SDS_P1;SDS_P2;PMS_P1;PMS_P2;Temp;Humidity;BMP_temperature;BMP_pressure;BME280_temperature;BME280_humidity;BME280_pressure;Samples;Min_cycle;Max_cycle;Signal;HPM_P1;HPM_P2
2023/08/30 00:00:36;;;;;;;9.43;8.52;;;13.80;99.90;;;;;;5112112;27;20081;-68
2023/08/30 00:03:02;;;;;;;8.45;7.65;;;13.70;99.90;;;;;;5114408;27;20394;-67
2023/08/30 00:05:27;;;;;;;9.43;8.57;;;13.70;99.90;;;;;;5114270;27;20124;-68
2023/08/30 00:07:54;;;;;;;9.45;8.65;;;13.60;99.90;;;;;;5120292;27;20043;-67
2023/08/30 00:10:19;;;;;;;9.63;8.63;;;13.60;99.90;;;;;;5126270;27;20058;-68
2023/08/30 00:12:45;;;;;;;9.68;8.77;;;13.50;99.90;;;;;;5126302;27;20046;-68
2023/08/30 00:15:11;;;;;;;10.60;8.75;;;13.50;99.90;;;;;;5136945;27;20034;-67
2023/08/30 00:17:37;;;;;;;9.32;8.40;;;13.50;99.90;;;;;;5112619;27;20035;-68
2023/08/30 00:20:03;;;;;;;9.63;8.70;;;13.50;99.90;;;;;;5128684;27;20503;-67
2023/08/30 00:22:28;;;;;;;9.70;8.75;;;13.50;99.90;;;;;;5112443;27;20052;-67
2023/08/30 00:24:54;;;;;;;8.82;7.75;;;13.50;99.90;;;;;;5114916;27;20027;-67
2023/08/30 00:27:23;;;;;;;8.40;7.47;;;13.50;99.90;;;;;;5113144;27;20078;-68
2023/08/30 00:29:49;;;;;;;9.30;8.38;;;13.50;99.90;;;;;;5113536;27;20058;-67
2023/08/30 00:32:15;;;;;;;9.57;7.95;;;13.50;99.90;;;;;;5113760;27;20035;-68
2023/08/30 00:34:41;;;;;;;8.35;7.53;;;13.50;99.90;;;;;;5115651;27;20053;-67
2023/08/30 00:37:06;;;;;;;8.60;7.75;;;13.50;99.90;;;;;;5112948;27;20366;-67
2023/08/30 00:39:32;;;;;;;9.50;8.20;;;13.40;99.90;;;;;;5116166;27;20034;-68
2023/08/30 00:41:58;;;;;;;8.55;7.53;;;13.40;99.90;;;;;;5113140;27;20561;-69
2023/08/30 00:44:26;;;;;;;10.55;7.85;;;13.30;99.90;;;;;;5116323;27;20094;-68
2023/08/30 00:46:52;;;;;;;9.00;8.15;;;13.30;99.90;;;;;;5115207;27;20560;-67
2023/08/30 00:49:18;;;;;;;8.57;7.72;;;13.20;99.90;;;;;;5113020;27;20102;-68
2023/08/30 00:51:43;;;;;;;14.63;8.40;;;13.20;99.90;;;;;;5113955;27;20058;-67
2023/08/30 00:54:09;;;;;;;9.80;7.97;;;13.10;99.90;;;;;;5120319;27;20031;-68
2023/08/30 00:56:35;;;;;;;9.95;8.95;;;13.10;99.90;;;;;;5114972;27;20511;-68
2023/08/30 00:59:01;;;;;;;9.50;8.50;;;13.10;99.90;;;;;;5131138;27;20035;-67
2023/08/30 01:01:26;;;;;;;9.98;9.02;;;13.10;99.90;;;;;;5103997;27;20049;-67
2023/08/30 01:03:52;;;;;;;10.05;9.05;;;13.10;99.90;;;;;;5133042;27;20477;-69
2023/08/30 01:06:17;;;;;;;9.20;8.38;;;13.10;99.90;;;;;;5131294;27;20415;-68
2023/08/30 01:08:44;;;;;;;9.80;8.80;;;13.10;99.90;;;;;;5133109;27;20047;-67
2023/08/30 01:11:28;;;;;;;9.60;8.60;;;13.10;99.90;;;;;;5130968;27;20080;-67
2023/08/30 01:13:58;;;;;;;9.00;8.20;;;13.10;99.90;;;;;;5112600;27;20035;-68
2023/08/30 01:16:25;;;;;;;9.10;8.18;;;13.10;99.90;;;;;;5118433;27;20150;-68
2023/08/30 01:18:56;;;;;;;12.52;8.13;;;13.10;99.90;;;;;;5114140;27;20039;-68
2023/08/30 01:22:00;;;;;;;8.90;8.00;;;13.10;99.90;;;;;;5114664;27;20495;-68
2023/08/30 01:24:52;;;;;;;8.30;7.50;;;13.10;99.90;;;;;;5132652;27;20485;-67
2023/08/30 01:27:19;;;;;;;8.70;7.78;;;13.00;99.90;;;;;;5119480;27;20031;-68
2023/08/30 01:29:47;;;;;;;8.65;7.75;;;13.00;99.90;;;;;;5113149;27;20122;-68
2023/08/30 01:32:14;;;;;;;8.95;8.15;;;13.00;99.90;;;;;;5130581;27;20046;-67
2023/08/30 01:34:41;;;;;;;9.23;8.20;;;13.00;99.90;;;;;;5124071;27;20394;-68
2023/08/30 01:37:10;;;;;;;9.40;8.05;;;13.00;99.90;;;;;;5120387;27;20046;-67
2023/08/30 01:39:41;;;;;;;8.35;7.60;;;13.00;99.90;;;;;;5132974;27;20034;-68
2023/08/30 01:42:09;;;;;;;9.40;7.87;;;13.00;99.90;;;;;;5119957;27;20038;-67
2023/08/30 01:44:35;;;;;;;8.93;7.50;;;13.00;99.90;;;;;;5131341;27;20039;-68
2023/08/30 01:47:02;;;;;;;8.88;7.88;;;13.00;99.90;;;;;;5152811;27;20113;-67
2023/08/30 01:49:32;;;;;;;9.23;7.78;;;13.00;99.90;;;;;;5117854;27;20081;-68
2023/08/30 01:51:58;;;;;;;9.90;8.27;;;13.00;99.90;;;;;;5117262;27;20435;-68
2023/08/30 01:54:25;;;;;;;10.00;8.32;;;13.10;99.90;;;;;;5118007;27;20051;-68
2023/08/30 01:56:51;;;;;;;8.20;7.40;;;13.10;99.90;;;;;;5115971;27;20096;-67
2023/08/30 01:59:17;;;;;;;8.63;7.80;;;13.10;99.90;;;;;;5119433;27;20416;-68
2023/08/30 02:01:43;;;;;;;8.65;7.80;;;13.10;99.90;;;;;;5115866;27;20043;-67
2023/08/30 02:04:08;;;;;;;9.32;7.90;;;13.10;99.90;;;;;;5131744;27;20694;-67
2023/08/30 02:06:48;;;;;;;9.27;7.72;;;13.10;99.90;;;;;;5132642;27;20050;-69
2023/08/30 02:09:22;;;;;;;9.07;7.22;;;13.10;99.90;;;;;;5103074;27;20082;-67
2023/08/30 02:11:50;;;;;;;8.85;7.95;;;13.10;99.90;;;;;;5100517;28;20474;-68
2023/08/30 02:14:18;;;;;;;8.38;7.57;;;13.20;99.90;;;;;;5109173;28;20032;-67
2023/08/30 02:16:48;;;;;;;9.10;8.25;;;13.20;99.90;;;;;;5112215;28;20048;-67
2023/08/30 02:19:20;;;;;;;9.18;8.27;;;13.20;99.90;;;;;;5105555;27;20210;-66
2023/08/30 02:21:46;;;;;;;9.20;8.05;;;13.20;99.90;;;;;;5108128;28;20035;-67
2023/08/30 02:24:12;;;;;;;8.90;8.00;;;13.20;99.90;;;;;;5088935;28;20050;-67
2023/08/30 02:26:37;;;;;;;9.60;8.18;;;13.20;99.90;;;;;;5112150;28;20122;-67
2023/08/30 02:29:03;;;;;;;9.02;8.05;;;13.20;99.90;;;;;;5106096;27;20395;-69
2023/08/30 02:31:29;;;;;;;9.35;8.45;;;13.20;99.90;;;;;;5110339;28;20046;-68
2023/08/30 02:33:55;;;;;;;9.13;8.23;;;13.10;99.90;;;;;;5111559;28;20043;-67
2023/08/30 02:36:20;;;;;;;9.52;8.18;;;13.10;99.90;;;;;;5108658;28;20032;-67
2023/08/30 02:38:46;;;;;;;8.90;8.10;;;13.10;99.90;;;;;;5112036;28;20077;-67
2023/08/30 02:41:12;;;;;;;8.98;8.07;;;13.00;99.90;;;;;;5110630;28;20097;-67
2023/08/30 02:43:38;;;;;;;9.20;8.30;;;13.00;99.90;;;;;;5108333;28;20040;-68
2023/08/30 02:46:05;;;;;;;9.65;8.25;;;13.00;99.90;;;;;;5094177;28;20375;-68
2023/08/30 02:48:31;;;;;;;9.20;8.30;;;12.90;99.90;;;;;;5109599;28;20126;-67
2023/08/30 02:50:57;;;;;;;8.75;7.85;;;12.90;99.90;;;;;;5104660;28;20126;-67
2023/08/30 02:53:23;;;;;;;10.38;8.77;;;12.90;99.90;;;;;;5109489;28;20446;-67
2023/08/30 02:55:49;;;;;;;10.55;8.75;;;12.80;99.90;;;;;;5111597;28;20391;-67
2023/08/30 02:58:15;;;;;;;9.38;8.48;;;12.80;99.90;;;;;;5092103;28;20044;-67
2023/08/30 03:00:40;;;;;;;9.25;8.18;;;12.80;99.90;;;;;;5119326;27;20039;-68
2023/08/30 03:03:06;;;;;;;11.27;8.85;;;12.70;99.90;;;;;;5108347;28;20031;-69
2023/08/30 03:05:31;;;;;;;10.85;9.68;;;12.70;99.90;;;;;;5111757;27;20492;-67
2023/08/30 03:07:57;;;;;;;10.63;9.57;;;12.60;99.90;;;;;;5114698;27;20160;-67
2023/08/30 03:10:23;;;;;;;11.13;9.50;;;12.60;99.90;;;;;;5113670;27;20055;-69
2023/08/30 03:12:49;;;;;;;11.10;9.70;;;12.60;99.90;;;;;;5121279;27;20566;-67
2023/08/30 03:15:14;;;;;;;10.30;9.32;;;12.60;99.90;;;;;;5114477;27;20039;-67
2023/08/30 03:17:40;;;;;;;10.90;9.70;;;12.50;99.90;;;;;;5115863;27;20497;-69
2023/08/30 03:20:06;;;;;;;10.27;9.27;;;12.50;99.90;;;;;;5117831;27;20030;-68
2023/08/30 03:22:32;;;;;;;10.95;9.68;;;12.50;99.90;;;;;;5133187;27;20092;-68
2023/08/30 03:24:58;;;;;;;10.82;9.77;;;12.50;99.90;;;;;;5133582;27;20058;-68
2023/08/30 03:27:24;;;;;;;11.43;10.07;;;12.50;99.90;;;;;;5117590;27;20038;-67
2023/08/30 03:29:50;;;;;;;11.32;9.77;;;12.50;99.90;;;;;;5127843;27;20039;-67
2023/08/30 03:32:17;;;;;;;11.48;9.77;;;12.50;99.90;;;;;;5120036;27;20129;-68
2023/08/30 03:34:46;;;;;;;12.23;10.10;;;12.50;99.90;;;;;;5117848;27;20039;-67
2023/08/30 03:37:16;;;;;;;11.40;10.02;;;12.60;99.90;;;;;;5113674;27;20050;-67
2023/08/30 03:39:42;;;;;;;10.88;9.77;;;12.60;99.90;;;;;;5131718;27;22011;-68
2023/08/30 03:42:08;;;;;;;10.63;9.52;;;12.60;99.90;;;;;;5113836;27;20126;-68
2023/08/30 03:44:34;;;;;;;11.20;9.65;;;12.60;99.90;;;;;;5134198;27;20416;-68
2023/08/30 03:47:00;;;;;;;11.10;10.00;;;12.70;99.90;;;;;;5126773;27;20035;-68
2023/08/30 03:49:25;;;;;;;11.73;10.52;;;12.70;99.90;;;;;;5124195;27;20042;-68
2023/08/30 03:51:51;;;;;;;10.23;9.18;;;12.70;99.90;;;;;;5132576;27;20056;-68
2023/08/30 03:54:17;;;;;;;11.15;10.00;;;12.70;99.90;;;;;;5126188;27;20051;-67
2023/08/30 03:56:43;;;;;;;11.10;9.43;;;12.70;99.90;;;;;;5113660;27;20055;-67
2023/08/30 03:59:09;;;;;;;11.40;10.18;;;12.70;99.90;;;;;;5114125;27;20076;-68
2023/08/30 04:01:35;;;;;;;10.20;9.13;;;12.70;99.90;;;;;;5113498;27;20031;-67
2023/08/30 04:04:01;;;;;;;13.13;9.93;;;12.70;99.90;;;;;;5127174;27;20087;-68
2023/08/30 04:06:26;;;;;;;11.02;9.65;;;12.70;99.90;;;;;;5115616;27;20047;-67
2023/08/30 04:08:52;;;;;;;10.50;9.40;;;12.70;99.90;;;;;;5113056;27;20035;-68
2023/08/30 04:11:18;;;;;;;10.85;9.75;;;12.70;99.90;;;;;;5116041;27;20083;-67
2023/08/30 04:13:43;;;;;;;11.00;9.82;;;12.70;99.90;;;;;;5122069;27;20084;-67
2023/08/30 04:16:09;;;;;;;10.68;9.57;;;12.70;99.90;;;;;;5113526;27;20474;-67
2023/08/30 04:18:34;;;;;;;10.75;9.68;;;12.70;99.90;;;;;;5121627;27;20039;-68
2023/08/30 04:21:02;;;;;;;12.10;9.48;;;12.70;99.90;;;;;;5106133;27;20184;-67
2023/08/30 04:23:29;;;;;;;10.95;9.07;;;12.70;99.90;;;;;;5116920;27;20170;-66
2023/08/30 04:25:54;;;;;;;10.32;9.23;;;12.80;99.90;;;;;;5097159;27;20728;-67
2023/08/30 04:28:21;;;;;;;11.27;9.80;;;12.80;99.90;;;;;;5112766;27;20058;-68
2023/08/30 04:30:46;;;;;;;12.30;9.68;;;12.80;99.90;;;;;;5112660;27;20047;-68
2023/08/30 04:33:12;;;;;;;11.73;9.32;;;12.90;99.90;;;;;;5097136;27;20050;-68
2023/08/30 04:35:38;;;;;;;10.65;9.50;;;12.80;99.90;;;;;;5116362;27;20123;-68
2023/08/30 04:38:04;;;;;;;11.13;9.98;;;12.90;99.90;;;;;;5112861;27;20050;-68
2023/08/30 04:40:32;;;;;;;13.45;9.93;;;12.80;99.90;;;;;;5113705;27;20031;-67
2023/08/30 04:43:01;;;;;;;10.63;9.52;;;12.90;99.90;;;;;;5112670;27;20118;-68
2023/08/30 04:45:27;;;;;;;12.13;9.80;;;12.90;99.90;;;;;;5105396;27;20437;-68
2023/08/30 04:47:54;;;;;;;11.25;9.63;;;12.90;99.90;;;;;;5132017;27;20147;-68
2023/08/30 04:50:20;;;;;;;10.25;9.23;;;12.90;99.90;;;;;;5117211;27;20113;-67
2023/08/30 04:52:45;;;;;;;10.93;9.75;;;12.90;99.90;;;;;;5112610;27;20124;-67
2023/08/30 04:55:11;;;;;;;11.55;9.32;;;12.90;99.90;;;;;;5115027;27;20095;-67
2023/08/30 04:57:37;;;;;;;10.95;9.85;;;12.90;99.90;;;;;;5112685;27;20406;-68
2023/08/30 05:00:04;;;;;;;10.88;9.77;;;13.00;99.90;;;;;;5115458;27;20126;-67
2023/08/30 05:02:31;;;;;;;12.30;9.80;;;13.00;99.90;;;;;;5129593;27;20037;-67
2023/08/30 05:04:56;;;;;;;11.55;9.27;;;13.00;99.90;;;;;;5120540;27;20031;-68
2023/08/30 05:07:22;;;;;;;10.15;9.13;;;13.00;99.90;;;;;;5115673;27;20047;-68
2023/08/30 05:09:48;;;;;;;14.63;9.50;;;13.10;99.90;;;;;;5112529;27;20378;-68
2023/08/30 05:12:13;;;;;;;12.13;9.43;;;13.00;99.90;;;;;;5098997;27;20039;-67
2023/08/30 05:14:40;;;;;;;11.75;9.15;;;13.10;99.90;;;;;;5136417;27;20495;-67
2023/08/30 05:17:07;;;;;;;10.95;9.65;;;13.10;99.90;;;;;;5132869;27;20111;-69
2023/08/30 05:19:33;;;;;;;10.40;9.32;;;13.10;99.90;;;;;;5128932;27;20035;-69
2023/08/30 05:21:58;;;;;;;13.25;10.20;;;13.10;99.90;;;;;;5128411;27;20048;-68
2023/08/30 05:24:26;;;;;;;11.98;9.23;;;13.10;99.90;;;;;;5136424;27;20035;-68
2023/08/30 05:26:51;;;;;;;10.93;9.63;;;13.20;99.90;;;;;;5118912;27;20054;-68
2023/08/30 05:29:17;;;;;;;14.70;10.60;;;13.20;99.90;;;;;;5116680;27;20382;-67
2023/08/30 05:31:43;;;;;;;11.30;9.43;;;13.20;99.90;;;;;;5135577;27;20042;-66
2023/08/30 05:34:10;;;;;;;13.02;10.18;;;13.20;99.90;;;;;;5116195;27;20115;-64
2023/08/30 05:36:36;;;;;;;10.55;9.45;;;13.20;99.90;;;;;;5124071;27;20039;-64
2023/08/30 05:39:03;;;;;;;11.57;9.45;;;13.30;99.90;;;;;;5142355;27;20439;-68
2023/08/30 05:41:29;;;;;;;10.50;9.38;;;13.30;99.90;;;;;;5118924;27;20086;-68
2023/08/30 05:43:54;;;;;;;11.07;9.90;;;13.30;99.90;;;;;;5116220;27;20039;-68
2023/08/30 05:46:20;;;;;;;11.40;10.20;;;13.30;99.90;;;;;;5137258;27;20512;-67
2023/08/30 05:48:46;;;;;;;10.65;9.55;;;13.30;99.90;;;;;;5116433;27;20283;-67
2023/08/30 05:51:11;;;;;;;11.18;9.32;;;13.30;99.90;;;;;;5120395;27;20160;-66
2023/08/30 05:53:37;;;;;;;12.35;10.00;;;13.30;99.90;;;;;;5115801;27;20088;-67
2023/08/30 05:56:04;;;;;;;12.45;9.82;;;13.40;99.90;;;;;;5115829;27;20043;-69
2023/08/30 05:58:29;;;;;;;12.18;10.82;;;13.40;99.90;;;;;;5129282;27;20050;-66
2023/08/30 06:00:56;;;;;;;12.15;10.40;;;13.40;99.90;;;;;;5136632;27;20149;-68
2023/08/30 06:03:22;;;;;;;11.18;9.98;;;13.50;99.90;;;;;;5130966;27;20378;-66
2023/08/30 06:05:48;;;;;;;13.05;10.32;;;13.50;99.90;;;;;;5116355;27;20077;-67
2023/08/30 06:08:14;;;;;;;12.88;10.60;;;13.60;99.90;;;;;;5122758;27;20046;-69
2023/08/30 06:10:40;;;;;;;13.05;10.50;;;13.60;99.90;;;;;;5126203;27;20049;-68
2023/08/30 06:13:06;;;;;;;12.82;10.57;;;13.70;99.90;;;;;;5116966;27;20047;-66
2023/08/30 06:15:33;;;;;;;13.93;10.63;;;13.70;99.90;;;;;;5115783;27;20095;-67
2023/08/30 06:17:59;;;;;;;13.52;11.05;;;13.80;99.90;;;;;;5129551;27;20050;-67
2023/08/30 06:20:24;;;;;;;13.82;10.15;;;13.80;99.90;;;;;;5118900;27;20034;-69
2023/08/30 06:22:50;;;;;;;12.55;9.57;;;13.90;99.90;;;;;;5099692;27;20046;-68
2023/08/30 06:25:16;;;;;;;13.07;10.57;;;13.90;99.90;;;;;;5114938;27;20062;-67
2023/08/30 06:27:43;;;;;;;11.52;9.65;;;13.90;99.90;;;;;;5116866;27;20115;-67
2023/08/30 06:30:10;;;;;;;12.13;10.43;;;14.00;99.90;;;;;;5132647;27;20091;-68
2023/08/30 06:32:36;;;;;;;11.88;9.95;;;14.00;99.90;;;;;;5106634;27;20444;-68
2023/08/30 06:35:02;;;;;;;11.60;10.40;;;14.00;99.90;;;;;;5122176;27;20087;-68
2023/08/30 06:37:28;;;;;;;12.23;10.35;;;14.00;99.90;;;;;;5123029;27;20070;-67
2023/08/30 06:39:53;;;;;;;12.05;10.13;;;14.00;99.90;;;;;;5125261;27;20588;-67
2023/08/30 06:42:19;;;;;;;11.77;10.45;;;14.00;99.90;;;;;;5121109;27;20035;-67
2023/08/30 06:44:45;;;;;;;11.65;10.25;;;14.00;99.90;;;;;;5109519;27;20074;-66
2023/08/30 06:47:10;;;;;;;13.50;11.00;;;14.00;99.90;;;;;;5129942;27;20167;-68
2023/08/30 06:49:36;;;;;;;11.32;9.82;;;14.00;99.90;;;;;;5103928;27;20059;-66
2023/08/30 06:52:03;;;;;;;12.35;10.65;;;14.00;99.90;;;;;;5128069;27;20037;-67
2023/08/30 06:54:32;;;;;;;14.13;10.73;;;14.00;99.90;;;;;;5128750;27;20149;-67
2023/08/30 06:56:59;;;;;;;12.90;11.02;;;14.00;99.90;;;;;;5128854;27;20055;-66
2023/08/30 06:59:26;;;;;;;13.95;10.20;;;14.00;99.90;;;;;;5121010;27;20537;-67
2023/08/30 07:01:52;;;;;;;12.32;10.07;;;14.10;99.90;;;;;;5117257;27;20393;-67
2023/08/30 07:04:18;;;;;;;10.95;9.75;;;14.10;99.90;;;;;;5115700;27;20049;-67
2023/08/30 07:06:44;;;;;;;11.80;10.40;;;14.10;99.90;;;;;;5119691;27;20039;-67
2023/08/30 07:09:11;;;;;;;12.88;10.20;;;14.20;99.90;;;;;;5102645;27;20038;-69
2023/08/30 07:11:37;;;;;;;12.40;11.10;;;14.20;99.90;;;;;;5116652;27;20082;-67
2023/08/30 07:14:04;;;;;;;13.55;10.93;;;14.20;99.90;;;;;;5097322;27;20046;-68
2023/08/30 07:16:31;;;;;;;12.10;10.20;;;14.30;99.90;;;;;;5133407;27;20052;-68
2023/08/30 07:18:58;;;;;;;11.35;10.13;;;14.40;99.90;;;;;;5116256;27;20053;-68
2023/08/30 07:21:23;;;;;;;15.45;11.10;;;14.50;99.90;;;;;;5118058;27;20411;-68
2023/08/30 07:23:49;;;;;;;12.57;10.52;;;14.60;99.90;;;;;;5119086;27;20134;-67
2023/08/30 07:26:15;;;;;;;11.35;9.68;;;14.60;99.90;;;;;;5119665;27;20129;-68
2023/08/30 07:28:41;;;;;;;12.40;10.30;;;14.80;99.90;;;;;;5114634;27;20107;-67
2023/08/30 07:31:06;;;;;;;11.88;10.63;;;14.90;99.90;;;;;;5101584;27;20041;-67
2023/08/30 07:33:32;;;;;;;12.85;10.05;;;15.10;99.90;;;;;;5121360;27;20607;-67
2023/08/30 07:35:58;;;;;;;12.07;10.38;;;15.10;99.90;;;;;;5103715;27;20078;-68
2023/08/30 07:38:24;;;;;;;14.85;10.73;;;15.40;99.90;;;;;;5104251;27;20039;-68
2023/08/30 07:40:49;;;;;;;12.77;10.52;;;15.50;99.90;;;;;;5122582;27;20035;-68
2023/08/30 07:43:15;;;;;;;12.88;10.65;;;15.50;99.90;;;;;;5124016;27;20045;-69
2023/08/30 07:45:41;;;;;;;12.82;9.95;;;15.50;99.90;;;;;;5122506;27;20045;-68
2023/08/30 07:48:06;;;;;;;12.27;10.20;;;15.50;99.90;;;;;;5127202;27;20047;-69
2023/08/30 07:50:32;;;;;;;12.38;10.43;;;15.50;99.90;;;;;;5140551;27;20067;-66
2023/08/30 07:52:58;;;;;;;16.13;11.05;;;15.40;99.90;;;;;;5114545;27;20043;-69
2023/08/30 07:55:23;;;;;;;12.45;11.05;;;15.40;99.90;;;;;;5115447;27;20149;-68
2023/08/30 07:57:49;;;;;;;13.45;11.48;;;15.40;99.90;;;;;;5097153;27;20046;-68
2023/08/30 08:00:15;;;;;;;13.48;12.05;;;15.40;99.90;;;;;;5121718;27;20096;-68
2023/08/30 08:02:41;;;;;;;13.15;10.98;;;15.40;99.90;;;;;;5124330;27;20031;-67
2023/08/30 08:05:06;;;;;;;13.13;10.80;;;15.50;99.90;;;;;;5125458;27;20186;-68
2023/08/30 08:07:32;;;;;;;15.27;11.35;;;15.40;99.90;;;;;;5118449;27;20082;-68
2023/08/30 08:09:58;;;;;;;12.45;10.95;;;15.40;99.90;;;;;;5113049;27;20047;-68
2023/08/30 08:12:24;;;;;;;14.43;10.73;;;15.40;99.90;;;;;;5112144;27;20042;-69
2023/08/30 08:14:49;;;;;;;13.95;11.23;;;15.40;99.90;;;;;;5128695;27;20043;-66
2023/08/30 08:17:15;;;;;;;12.27;10.43;;;15.40;99.90;;;;;;5118141;27;20035;-69
2023/08/30 08:19:42;;;;;;;14.23;11.10;;;15.40;99.90;;;;;;5121038;27;20176;-68
2023/08/30 08:22:08;;;;;;;14.05;11.05;;;15.40;99.90;;;;;;5113756;27;20058;-69
2023/08/30 08:24:34;;;;;;;12.65;10.43;;;15.50;99.90;;;;;;5120128;27;20035;-67
2023/08/30 08:27:01;;;;;;;13.40;10.93;;;15.40;99.90;;;;;;5115326;27;20043;-66
2023/08/30 08:29:28;;;;;;;13.68;10.32;;;15.40;99.90;;;;;;5103878;27;20068;-68
2023/08/30 08:31:53;;;;;;;12.13;10.50;;;15.40;99.90;;;;;;5120295;27;20039;-68
2023/08/30 08:34:19;;;;;;;11.88;10.60;;;15.40;99.90;;;;;;5121823;27;20421;-69
2023/08/30 08:36:45;;;;;;;14.52;10.23;;;15.30;99.90;;;;;;5121118;27;20042;-69
2023/08/30 08:39:11;;;;;;;14.68;10.20;;;15.20;99.90;;;;;;5122667;27;20030;-68
2023/08/30 08:41:41;;;;;;;12.40;10.30;;;15.20;99.90;;;;;;5121478;27;20043;-69
2023/08/30 08:44:08;;;;;;;11.98;10.23;;;15.10;99.90;;;;;;5111190;27;20500;-67
2023/08/30 08:46:36;;;;;;;12.45;10.25;;;15.10;99.90;;;;;;5123772;27;20043;-69
2023/08/30 08:49:10;;;;;;;13.30;10.27;;;15.00;99.90;;;;;;5124096;27;20060;-67
2023/08/30 08:51:37;;;;;;;11.57;9.77;;;15.00;99.90;;;;;;5104965;28;20508;-70
2023/08/30 08:54:04;;;;;;;12.00;10.40;;;15.00;99.90;;;;;;5102864;27;20103;-68
2023/08/30 08:56:34;;;;;;;12.88;10.38;;;14.90;99.90;;;;;;5122597;27;20437;-68
2023/08/30 08:59:00;;;;;;;13.07;10.80;;;14.80;99.90;;;;;;5120643;27;20047;-68
2023/08/30 09:01:27;;;;;;;12.63;10.07;;;14.80;99.90;;;;;;5117738;27;20031;-69
2023/08/30 09:03:52;;;;;;;12.88;9.98;;;14.70;99.90;;;;;;5097635;27;20039;-69
2023/08/30 09:06:19;;;;;;;14.82;11.10;;;14.60;99.90;;;;;;5124702;27;20072;-67
2023/08/30 09:08:44;;;;;;;13.40;10.95;;;14.50;99.90;;;;;;5118997;28;20139;-68
2023/08/30 09:11:10;;;;;;;14.30;10.98;;;14.50;99.90;;;;;;5114566;27;20076;-68
2023/08/30 09:13:36;;;;;;;15.43;11.77;;;14.40;99.90;;;;;;5121360;27;20050;-70
2023/08/30 09:16:04;;;;;;;16.42;12.68;;;14.40;99.90;;;;;;5124563;27;20888;-70
2023/08/30 09:18:30;;;;;;;12.82;10.77;;;14.30;99.90;;;;;;5122986;27;20039;-69
2023/08/30 09:21:07;;;;;;;13.15;10.93;;;14.30;99.90;;;;;;5121658;27;20045;-68
2023/08/30 09:23:33;;;;;;;14.43;10.82;;;14.30;99.90;;;;;;5121072;27;20050;-70
2023/08/30 09:25:59;;;;;;;14.38;11.05;;;14.40;99.90;;;;;;5123736;27;20054;-69
2023/08/30 09:28:26;;;;;;;15.40;11.25;;;14.40;99.90;;;;;;5126219;27;20510;-69
2023/08/30 09:30:52;;;;;;;14.55;11.50;;;14.40;99.90;;;;;;5108169;27;20125;-69
2023/08/30 09:33:22;;;;;;;15.93;11.07;;;14.40;99.90;;;;;;5121040;27;20047;-71
2023/08/30 09:35:48;;;;;;;11.98;10.25;;;14.50;99.90;;;;;;5120388;27;20043;-69
2023/08/30 09:38:20;;;;;;;12.90;10.25;;;14.50;99.90;;;;;;5119572;27;20035;-69
2023/08/30 09:40:46;;;;;;;;;;;14.60;99.90;;;;;;5115853;27;20043;-69
2023/08/30 09:43:13;;;;;;;11.57;8.93;;;14.70;99.90;;;;;;5116470;27;19938;-67
2023/08/30 09:45:39;;;;;;;11.95;9.63;;;14.80;99.90;;;;;;5119833;27;20123;-68
2023/08/30 09:48:05;;;;;;;9.63;8.63;;;14.90;99.90;;;;;;5119099;27;20457;-70
2023/08/30 09:50:35;;;;;;;10.57;8.10;;;15.00;99.90;;;;;;5119032;27;20038;-67
2023/08/30 09:53:09;;;;;;;10.65;8.25;;;15.10;99.90;;;;;;5119688;27;20123;-68
2023/08/30 09:55:35;;;;;;;9.45;8.27;;;15.10;99.90;;;;;;5121676;27;20039;-68
2023/08/30 09:58:04;;;;;;;9.25;7.55;;;15.10;99.90;;;;;;5120139;27;20035;-69
2023/08/30 10:00:31;;;;;;;9.95;7.65;;;15.10;99.90;;;;;;5105779;27;20031;-69
2023/08/30 10:02:58;;;;;;;10.48;8.43;;;15.10;99.90;;;;;;5112746;28;20039;-69
2023/08/30 10:05:24;;;;;;;10.85;8.60;;;15.20;99.90;;;;;;5116036;27;20035;-70
2023/08/30 10:07:52;;;;;;;9.38;8.10;;;15.20;99.90;;;;;;5126202;27;20081;-66
2023/08/30 10:10:18;;;;;;;10.10;9.10;;;15.30;99.90;;;;;;5124196;27;20042;-68
2023/08/30 10:12:49;;;;;;;10.32;8.07;;;15.30;99.90;;;;;;5123134;27;20034;-70
2023/08/30 10:15:14;;;;;;;9.38;8.10;;;15.30;99.90;;;;;;5120087;27;20091;-69
2023/08/30 10:17:44;;;;;;;9.70;7.97;;;15.30;99.90;;;;;;5124660;27;20042;-70
2023/08/30 10:20:12;;;;;;;8.50;7.60;;;15.20;99.90;;;;;;5131339;27;20435;-67
2023/08/30 10:22:39;;;;;;;9.73;8.05;;;15.20;99.90;;;;;;5141685;27;20023;-69
2023/08/30 10:25:16;;;;;;;9.30;8.40;;;15.00;99.90;;;;;;5128095;27;20075;-68
2023/08/30 10:27:46;;;;;;;10.18;7.93;;;15.00;99.90;;;;;;5128665;27;20439;-68
2023/08/30 10:30:13;;;;;;;9.13;7.57;;;15.00;99.90;;;;;;5127519;27;20157;-67
2023/08/30 10:32:43;;;;;;;8.68;7.07;;;14.90;99.90;;;;;;5123256;27;20776;-66
2023/08/30 10:35:16;;;;;;;10.30;7.65;;;14.90;99.90;;;;;;5098144;27;20570;-69
2023/08/30 10:37:42;;;;;;;9.60;7.70;;;14.90;99.90;;;;;;5114521;27;20055;-68
2023/08/30 10:40:09;;;;;;;8.63;7.78;;;14.90;99.90;;;;;;5134065;27;20110;-69
2023/08/30 10:42:35;;;;;;;9.48;7.75;;;14.90;99.90;;;;;;5128110;27;20039;-69
2023/08/30 10:45:05;;;;;;;10.73;8.00;;;14.80;99.90;;;;;;5114832;27;20046;-67
2023/08/30 10:47:32;;;;;;;9.63;8.10;;;14.80;99.90;;;;;;5126769;27;20430;-66
2023/08/30 10:50:06;;;;;;;9.77;7.45;;;14.80;99.90;;;;;;5114589;27;20050;-69
2023/08/30 10:52:32;;;;;;;10.38;7.82;;;14.80;99.90;;;;;;5118487;27;20482;-67
2023/08/30 10:55:16;;;;;;;9.02;7.47;;;14.80;99.90;;;;;;5109339;27;20553;-67
2023/08/30 10:57:43;;;;;;;9.27;7.78;;;14.80;99.90;;;;;;5130839;27;20051;-67
2023/08/30 11:00:09;;;;;;;9.10;8.20;;;14.70;99.90;;;;;;5133953;27;20113;-68
2023/08/30 11:02:38;;;;;;;9.15;7.82;;;14.70;99.90;;;;;;5118827;27;20039;-66
2023/08/30 11:05:08;;;;;;;9.10;8.15;;;14.70;99.90;;;;;;5130716;27;20095;-68
2023/08/30 11:07:33;;;;;;;9.57;8.25;;;14.70;99.90;;;;;;5116194;27;20061;-68
2023/08/30 11:09:59;;;;;;;10.90;9.15;;;14.70;99.90;;;;;;5115310;27;20476;-68
2023/08/30 11:12:25;;;;;;;9.88;8.73;;;14.60;99.90;;;;;;5116147;27;20650;-70
2023/08/30 11:14:52;;;;;;;10.25;9.25;;;14.60;99.90;;;;;;5121862;27;20080;-65
2023/08/30 11:17:18;;;;;;;12.32;8.85;;;14.50;99.90;;;;;;5122003;27;20056;-66
2023/08/30 11:19:44;;;;;;;9.45;8.48;;;14.50;99.90;;;;;;5123097;27;20138;-65
2023/08/30 11:22:12;;;;;;;9.93;8.93;;;14.50;99.90;;;;;;5122732;27;20054;-64
2023/08/30 11:24:38;;;;;;;10.70;9.15;;;14.40;99.90;;;;;;5146355;27;20042;-65
2023/08/30 11:27:04;;;;;;;11.30;9.60;;;14.50;99.90;;;;;;5116842;27;20066;-67
2023/08/30 11:29:30;;;;;;;10.52;9.52;;;14.40;99.90;;;;;;5125387;27;20047;-68
2023/08/30 11:31:55;;;;;;;10.93;9.77;;;14.40;99.90;;;;;;5128840;27;20042;-68
2023/08/30 11:34:24;;;;;;;10.73;9.57;;;14.40;99.90;;;;;;5119349;27;20057;-68
2023/08/30 11:36:50;;;;;;;12.50;9.25;;;14.40;99.90;;;;;;5118850;27;20095;-68
2023/08/30 11:39:16;;;;;;;10.02;8.88;;;14.40;99.90;;;;;;5099546;27;20393;-67
2023/08/30 11:41:43;;;;;;;10.75;9.07;;;14.40;99.90;;;;;;5121757;27;20054;-67
2023/08/30 11:44:10;;;;;;;9.65;8.75;;;14.40;99.90;;;;;;5102930;27;20042;-67
2023/08/30 11:46:36;;;;;;;10.00;9.00;;;14.40;99.90;;;;;;5122634;27;20130;-67
2023/08/30 11:49:02;;;;;;;11.77;9.65;;;14.30;99.90;;;;;;5118578;27;20540;-68
2023/08/30 11:51:29;;;;;;;10.55;9.45;;;14.30;99.90;;;;;;5115758;27;20397;-68
2023/08/30 11:53:55;;;;;;;10.77;9.68;;;14.30;99.90;;;;;;5126118;27;20027;-68
2023/08/30 11:56:22;;;;;;;9.80;8.80;;;14.30;99.90;;;;;;5124451;27;20062;-68
2023/08/30 11:58:48;;;;;;;10.30;8.90;;;14.30;99.90;;;;;;5120037;27;20039;-67
2023/08/30 12:01:14;;;;;;;9.82;8.82;;;14.40;99.90;;;;;;5116576;27;20050;-67
2023/08/30 12:03:40;;;;;;;9.68;8.70;;;14.40;99.90;;;;;;5129921;27;20062;-67
2023/08/30 12:06:11;;;;;;;10.57;9.57;;;14.40;99.90;;;;;;5131500;27;20083;-68
2023/08/30 12:08:37;;;;;;;9.55;8.60;;;14.40;99.90;;;;;;5113348;27;20051;-67
2023/08/30 12:11:03;;;;;;;11.75;9.60;;;14.50;99.90;;;;;;5123256;27;20054;-68
2023/08/30 12:13:31;;;;;;;9.77;8.77;;;14.50;99.90;;;;;;5105427;27;20062;-68
2023/08/30 12:15:58;;;;;;;8.45;7.47;;;14.50;99.90;;;;;;5099774;27;20513;-68
2023/08/30 12:18:28;;;;;;;8.55;7.65;;;14.60;99.90;;;;;;5117539;27;20500;-67
2023/08/30 12:20:59;;;;;;;8.05;7.25;;;14.60;99.90;;;;;;5103672;27;20047;-68
2023/08/30 12:23:27;;;;;;;7.85;7.15;;;14.70;99.90;;;;;;5121979;27;20489;-68
2023/08/30 12:26:06;;;;;;;8.05;7.35;;;14.70;99.90;;;;;;5140331;27;20107;-67
2023/08/30 12:28:34;;;;;;;7.50;6.72;;;14.80;99.90;;;;;;5119611;27;20047;-68
2023/08/30 12:31:00;;;;;;;7.18;6.50;;;14.80;99.90;;;;;;5116797;27;20050;-67
2023/08/30 12:33:25;;;;;;;6.88;6.28;;;14.80;99.90;;;;;;5125871;27;20734;-67
2023/08/30 12:35:54;;;;;;;6.90;6.30;;;14.80;99.90;;;;;;5120921;27;20067;-66